Time;durP1;ratioP1;P1;durP2;ratioP2;P2;SDS_P1;SDS_P2;PMS_P1;PMS_P2;Temp;Humidity;BMP_temperature;BMP_pressure;BME280_temperature;BME280_humidity;BME280_pressure;Samples;Min_cycle;Max_cycle;Signal;HPM_P1;HPM_P2
2022/06/02 03:02:46;;;;;;;6.33;5.73;;;13.40;99.90;;;;;;4988144;28;20267;-75
2022/06/02 03:05:46;;;;;;;5.30;4.90;;;13.50;99.90;;;;;;4990448;28;20176;-77
2022/06/02 03:08:48;;;;;;;4.93;4.73;;;13.40;99.90;;;;;;4986692;28;20195;-78
2022/06/02 03:11:33;;;;;;;5.67;5.37;;;13.40;99.90;;;;;;4960412;28;20223;-77
2022/06/02 03:14:29;;;;;;;6.77;6.37;;;13.30;99.90;;;;;;5018916;23;20223;-77
2022/06/02 03:17:12;;;;;;;10.17;9.57;;;13.30;99.90;;;;;;4990806;28;20199;-76
2022/06/02 03:20:08;;;;;;;10.30;9.80;;;13.20;99.90;;;;;;5011785;28;20207;-77
2022/06/02 03:22:48;;;;;;;9.00;8.40;;;13.30;99.90;;;;;;4983662;28;20624;-71
2022/06/02 03:25:29;;;;;;;8.77;8.07;;;13.30;99.90;;;;;;5028434;28;20222;-73
2022/06/02 03:28:22;;;;;;;15.10;14.40;;;13.30;99.90;;;;;;5030985;28;20177;-72
2022/06/02 03:30:57;;;;;;;17.40;16.60;;;13.30;99.90;;;;;;5029995;28;20857;-72
2022/06/02 03:33:38;;;;;;;27.73;26.27;;;13.30;99.90;;;;;;5030250;28;20631;-72
2022/06/02 03:36:27;;;;;;;24.30;23.10;;;13.20;99.90;;;;;;5030538;28;20654;-73
2022/06/02 03:39:03;;;;;;;25.20;24.00;;;13.20;99.90;;;;;;5030062;28;20266;-74
2022/06/02 03:41:34;;;;;;;27.70;26.37;;;13.20;99.90;;;;;;5029596;28;20211;-74
2022/06/02 03:44:26;;;;;;;29.03;27.17;;;13.30;99.90;;;;;;5029140;28;20199;-73
2022/06/02 03:47:10;;;;;;;22.93;21.83;;;13.40;99.90;;;;;;5028580;28;20183;-72
2022/06/02 03:50:01;;;;;;;21.30;19.93;;;13.40;99.90;;;;;;5029922;28;20261;-72
2022/06/02 03:52:39;;;;;;;20.87;19.67;;;13.40;99.90;;;;;;5029626;28;20194;-73
2022/06/02 03:55:28;;;;;;;15.43;14.63;;;13.40;99.90;;;;;;5031345;28;20207;-72
2022/06/02 03:58:12;;;;;;;14.80;14.10;;;13.40;99.90;;;;;;4985213;28;20254;-73
2022/06/02 04:00:49;;;;;;;20.20;19.23;;;13.40;99.90;;;;;;5002604;28;20211;-73
2022/06/02 04:03:35;;;;;;;23.47;22.33;;;13.30;99.90;;;;;;4995028;28;20227;-75
2022/06/02 04:06:22;;;;;;;23.63;22.37;;;13.30;99.90;;;;;;5013107;28;20179;-72
2022/06/02 04:09:22;;;;;;;23.03;21.80;;;13.20;99.90;;;;;;5013425;28;20183;-73
2022/06/02 04:15:00;;;;;;;19.90;18.50;;;13.30;99.90;;;;;;5013826;28;20273;-73
2022/06/02 04:17:48;;;;;;;17.03;15.80;;;13.40;99.90;;;;;;5012277;28;20279;-73
2022/06/02 04:20:35;;;;;;;17.00;15.87;;;13.40;99.90;;;;;;5012523;28;20792;-75
2022/06/02 04:23:19;;;;;;;22.40;20.60;;;13.30;99.90;;;;;;5013703;28;20238;-72
2022/06/02 04:26:10;;;;;;;19.77;18.37;;;13.30;99.90;;;;;;5014043;28;20632;-73
2022/06/02 04:28:54;;;;;;;18.03;17.03;;;13.40;99.90;;;;;;5012867;28;20237;-75
2022/06/02 04:31:38;;;;;;;20.57;19.47;;;13.50;99.90;;;;;;5012839;28;20234;-73
2022/06/02 04:34:22;;;;;;;10.57;9.67;;;13.80;99.90;;;;;;5013229;28;20204;-75
2022/06/02 04:37:20;;;;;;;6.10;5.60;;;14.10;99.90;;;;;;5012117;28;20640;-73
2022/06/02 04:40:16;;;;;;;6.23;4.77;;;14.30;99.90;;;;;;5013430;28;20212;-72
2022/06/02 04:43:04;;;;;;;5.40;4.97;;;14.50;99.90;;;;;;5012017;28;20263;-74
2022/06/02 04:45:55;;;;;;;5.77;4.63;;;14.60;99.90;;;;;;5014469;28;20573;-72
2022/06/02 04:48:21;;;;;;;5.20;4.80;;;14.80;99.90;;;;;;5013243;28;20226;-73
2022/06/02 04:50:55;;;;;;;6.53;6.00;;;15.00;99.90;;;;;;5013241;28;20651;-75
2022/06/02 04:53:21;;;;;;;16.87;15.43;;;15.20;99.90;;;;;;5012160;28;20183;-74
2022/06/02 04:56:18;;;;;;;20.43;19.43;;;15.30;99.90;;;;;;5012007;28;20179;-74
2022/06/02 04:59:10;;;;;;;10.33;9.63;;;15.50;99.90;;;;;;5012318;28;20195;-73
2022/06/02 05:02:12;;;;;;;6.00;5.60;;;15.60;99.90;;;;;;5011904;28;20590;-72
2022/06/02 05:05:12;;;;;;;6.23;5.93;;;15.70;99.90;;;;;;5012506;28;20286;-73
2022/06/02 05:08:13;;;;;;;6.03;5.50;;;15.60;99.90;;;;;;5011420;28;20188;-72
2022/06/02 05:11:04;;;;;;;6.53;5.93;;;15.50;99.90;;;;;;5012922;28;20190;-71
2022/06/02 05:13:45;;;;;;;6.67;6.03;;;15.30;99.90;;;;;;5012107;28;20709;-72
2022/06/02 05:16:20;;;;;;;6.97;6.37;;;15.30;99.90;;;;;;5011516;28;20191;-73
2022/06/02 05:19:21;;;;;;;7.17;6.87;;;15.40;99.90;;;;;;5011786;28;20189;-71
2022/06/02 05:22:16;;;;;;;10.90;10.20;;;16.20;99.90;;;;;;5012419;28;20191;-71
2022/06/02 05:24:54;;;;;;;16.30;15.50;;;17.30;99.90;;;;;;4972058;28;20366;-73
2022/06/02 05:27:43;;;;;;;8.17;7.67;;;18.50;99.90;;;;;;5012427;28;20179;-72
2022/06/02 05:30:17;;;;;;;25.67;24.40;;;19.30;99.90;;;;;;5012108;28;20274;-71
2022/06/02 05:33:24;;;;;;;23.73;22.63;;;19.60;99.90;;;;;;5012379;28;20179;-72
2022/06/02 05:36:18;;;;;;;17.67;16.58;;;20.00;99.90;;;;;;4957852;28;20211;-72
2022/06/02 05:39:11;;;;;;;5.80;5.60;;;20.40;99.90;;;;;;5012835;28;20809;-77
2022/06/02 05:41:54;;;;;;;5.25;4.75;;;20.80;97.30;;;;;;5013514;28;20218;-76
2022/06/02 05:44:31;;;;;;;4.90;4.70;;;21.10;94.70;;;;;;5016786;28;20203;-75
2022/06/02 05:47:15;;;;;;;6.65;6.30;;;21.40;91.20;;;;;;5011457;28;20274;-75
2022/06/02 05:49:50;;;;;;;7.10;6.80;;;21.50;90.50;;;;;;5011207;28;20184;-76
2022/06/02 05:52:23;;;;;;;7.00;6.28;;;21.80;90.30;;;;;;5012263;28;20282;-75
2022/06/02 05:55:17;;;;;;;5.05;4.75;;;21.90;86.30;;;;;;5012294;28;20203;-75
2022/06/02 05:58:06;;;;;;;5.07;4.88;;;22.00;85.60;;;;;;5012156;28;20175;-76
2022/06/02 06:00:45;;;;;;;4.13;3.92;;;22.10;88.80;;;;;;5011173;28;20237;-75
2022/06/02 06:03:23;;;;;;;4.68;4.38;;;22.50;85.70;;;;;;5012094;28;20191;-75
2022/06/02 06:06:02;;;;;;;4.53;4.32;;;22.30;79.30;;;;;;5012030;28;20207;-75
2022/06/02 06:08:47;;;;;;;4.35;4.15;;;21.80;82.20;;;;;;5011755;28;20202;-76
2022/06/02 06:11:34;;;;;;;5.90;5.60;;;21.80;81.10;;;;;;5012225;28;20591;-75
2022/06/02 06:14:14;;;;;;;6.20;5.90;;;21.80;81.30;;;;;;5010547;28;20698;-75
2022/06/02 06:17:24;;;;;;;5.45;5.13;;;21.50;81.50;;;;;;5010720;28;20179;-75
2022/06/02 06:19:58;;;;;;;7.28;6.85;;;21.80;81.70;;;;;;4987957;28;20217;-75
2022/06/02 06:22:46;;;;;;;5.78;5.30;;;21.80;80.00;;;;;;5011726;28;20184;-75
2022/06/02 06:25:18;;;;;;;6.10;5.80;;;21.40;81.70;;;;;;5010662;28;20737;-75
2022/06/02 06:28:09;;;;;;;6.03;5.75;;;21.80;80.70;;;;;;5011403;28;20187;-75
2022/06/02 06:30:57;;;;;;;4.93;4.72;;;22.20;80.40;;;;;;5010500;28;20184;-75
2022/06/02 06:33:46;;;;;;;6.10;5.80;;;22.70;82.10;;;;;;5010660;28;20586;-75
2022/06/02 06:36:38;;;;;;;4.85;4.65;;;23.30;77.10;;;;;;5010660;28;20191;-76
2022/06/02 06:39:25;;;;;;;4.65;4.45;;;23.50;77.40;;;;;;5010066;28;20191;-75
2022/06/02 06:42:04;;;;;;;5.60;4.35;;;23.90;73.30;;;;;;5010418;28;20183;-75
2022/06/02 06:44:53;;;;;;;5.93;5.55;;;23.50;74.80;;;;;;5011493;28;20686;-75
2022/06/02 06:47:36;;;;;;;4.72;4.45;;;23.80;75.90;;;;;;5011353;28;20175;-75
2022/06/02 06:50:16;;;;;;;5.20;4.85;;;24.10;74.40;;;;;;5011629;28;20188;-75
2022/06/02 06:53:06;;;;;;;6.28;5.75;;;24.50;71.60;;;;;;5011649;28;20570;-75
2022/06/02 06:56:15;;;;;;;5.50;5.20;;;24.50;68.20;;;;;;5011320;28;20203;-75
2022/06/02 06:58:47;;;;;;;4.57;4.38;;;24.40;67.80;;;;;;4934509;29;20212;-75
2022/06/02 07:01:28;;;;;;;5.03;4.82;;;24.50;68.50;;;;;;5001855;28;20596;-75
2022/06/02 07:04:21;;;;;;;5.57;5.28;;;24.70;66.50;;;;;;5011275;28;20208;-75
2022/06/02 07:07:29;;;;;;;5.68;5.38;;;24.50;67.40;;;;;;5012304;28;20238;-75
2022/06/02 07:10:07;;;;;;;6.30;5.65;;;24.10;65.90;;;;;;5011758;28;20210;-76
2022/06/02 07:12:53;;;;;;;5.50;5.25;;;23.90;69.90;;;;;;5012076;28;20663;-75
2022/06/02 07:15:47;;;;;;;5.28;5.03;;;24.50;68.20;;;;;;5011576;28;20585;-76
2022/06/02 07:18:25;;;;;;;4.28;3.97;;;24.90;67.10;;;;;;5003315;28;20253;-75
2022/06/02 07:21:32;;;;;;;3.75;3.55;;;25.30;64.10;;;;;;5011263;28;20630;-75
2022/06/02 07:24:21;;;;;;;4.88;4.35;;;24.70;61.60;;;;;;5009849;28;20199;-75
2022/06/02 07:27:18;;;;;;;6.25;5.75;;;24.30;64.90;;;;;;5011022;28;20180;-75
2022/06/02 07:29:52;;;;;;;5.50;5.03;;;24.80;66.10;;;;;;5018292;28;20184;-75
2022/06/02 07:32:26;;;;;;;4.43;4.22;;;24.60;63.30;;;;;;5014175;28;20183;-75
2022/06/02 07:35:31;;;;;;;4.70;4.50;;;23.50;62.60;;;;;;5014229;28;20203;-75
2022/06/02 07:38:02;;;;;;;5.45;5.18;;;23.30;66.40;;;;;;5014379;28;20191;-75
2022/06/02 07:40:55;;;;;;;4.57;4.40;;;24.00;65.30;;;;;;5014804;28;20223;-75
2022/06/02 07:43:42;;;;;;;4.72;4.53;;;24.70;63.60;;;;;;4986498;28;20715;-75
2022/06/02 07:47:05;;;;;;;4.55;4.35;;;25.30;62.60;;;;;;5013855;28;20187;-75
2022/06/02 07:49:45;;;;;;;5.30;4.15;;;24.70;58.80;;;;;;4954098;29;20225;-75
2022/06/02 07:52:32;;;;;;;3.70;3.53;;;24.60;59.50;;;;;;4938009;29;20181;-75
2022/06/02 07:55:42;;;;;;;4.82;4.50;;;24.80;58.90;;;;;;5000549;28;20214;-75
2022/06/02 07:58:23;;;;;;;3.42;3.22;;;24.60;58.30;;;;;;4990635;28;20191;-75
2022/06/02 08:00:54;;;;;;;3.90;3.60;;;23.90;60.40;;;;;;5013205;28;20207;-75
2022/06/02 08:03:59;;;;;;;3.70;3.50;;;24.20;61.80;;;;;;5014204;28;20550;-75
2022/06/02 08:06:49;;;;;;;5.22;5.03;;;24.70;59.60;;;;;;5010597;28;20231;-75
2022/06/02 08:09:42;;;;;;;5.65;5.35;;;24.80;58.40;;;;;;5013026;28;20191;-75
2022/06/02 08:12:42;;;;;;;4.40;4.30;;;24.40;58.70;;;;;;5012985;28;20184;-75
2022/06/02 08:15:14;;;;;;;4.68;4.18;;;24.00;59.30;;;;;;5013737;28;20745;-76
2022/06/02 08:17:48;;;;;;;5.50;5.22;;;23.20;61.30;;;;;;5012482;28;20606;-76
2022/06/02 08:20:28;;;;;;;5.75;5.45;;;23.00;61.00;;;;;;5012835;28;20691;-75
2022/06/02 08:23:23;;;;;;;5.68;5.20;;;23.10;60.50;;;;;;5014130;28;20187;-75
2022/06/02 08:25:49;;;;;;;5.32;5.00;;;23.60;60.70;;;;;;5012764;28;20238;-75
2022/06/02 08:28:33;;;;;;;6.85;4.90;;;23.50;60.00;;;;;;5013475;28;20599;-75
2022/06/02 08:31:37;;;;;;;5.53;5.22;;;23.60;62.40;;;;;;5013913;28;20187;-75
2022/06/02 08:34:35;;;;;;;5.57;5.30;;;23.50;59.60;;;;;;5012647;28;20207;-75
2022/06/02 08:37:25;;;;;;;3.55;3.35;;;23.80;62.40;;;;;;5013703;28;20187;-75
2022/06/02 08:40:10;;;;;;;2.83;2.63;;;24.60;58.90;;;;;;5013956;28;20207;-75
2022/06/02 08:43:02;;;;;;;4.93;4.18;;;24.70;58.20;;;;;;5013101;28;20597;-75
2022/06/02 08:46:05;;;;;;;4.53;4.22;;;25.10;59.50;;;;;;5013806;28;20746;-75
2022/06/02 08:48:57;;;;;;;4.72;4.53;;;26.10;58.00;;;;;;5013509;28;20206;-75
2022/06/02 08:52:05;;;;;;;3.80;3.70;;;26.50;56.00;;;;;;5013532;28;20350;-75
2022/06/02 08:55:13;;;;;;;7.10;6.45;;;25.70;55.10;;;;;;4965277;28;20694;-76
2022/06/02 08:58:09;;;;;;;3.72;3.53;;;24.90;57.30;;;;;;5012942;28;20258;-75
2022/06/02 09:01:01;;;;;;;5.25;4.95;;;25.40;59.20;;;;;;5013226;28;20208;-75
2022/06/02 09:04:03;;;;;;;4.95;4.75;;;25.90;56.80;;;;;;5013426;28;20207;-75
2022/06/02 09:06:51;;;;;;;4.25;4.05;;;25.90;55.70;;;;;;5013335;28;20250;-75
2022/06/02 09:09:47;;;;;;;6.03;5.63;;;25.60;55.10;;;;;;5013595;28;20546;-75
2022/06/02 09:12:25;;;;;;;4.18;3.92;;;25.10;57.40;;;;;;5024595;28;20191;-75
2022/06/02 09:15:23;;;;;;;4.57;4.38;;;25.80;56.80;;;;;;5031650;23;20290;-79
2022/06/02 09:18:12;;;;;;;4.03;3.72;;;26.40;55.30;;;;;;4992958;28;20181;-77
2022/06/02 09:21:17;;;;;;;4.78;4.55;;;26.70;55.20;;;;;;4992166;28;20306;-78
2022/06/02 09:24:16;;;;;;;3.55;3.35;;;27.20;54.10;;;;;;4964237;28;20187;-77
2022/06/02 09:26:48;;;;;;;3.72;3.47;;;27.00;54.90;;;;;;4992916;28;20648;-80
2022/06/02 09:29:57;;;;;;;3.72;3.60;;;27.40;54.90;;;;;;4992680;28;20238;-78
2022/06/02 09:32:31;;;;;;;3.78;3.40;;;27.60;52.00;;;;;;4933501;29;20668;-77
2022/06/02 09:35:10;;;;;;;5.25;4.95;;;27.60;52.40;;;;;;4984683;28;20680;-77
2022/06/02 09:37:57;;;;;;;7.97;7.22;;;27.90;51.20;;;;;;4992635;28;20650;-77
2022/06/02 09:40:42;;;;;;;8.35;7.15;;;28.00;52.30;;;;;;4991697;28;20302;-78
2022/06/02 09:43:30;;;;;;;14.38;13.48;;;28.30;52.00;;;;;;4991627;28;20182;-78
2022/06/02 09:46:01;;;;;;;10.02;9.10;;;28.10;49.80;;;;;;4992691;28;20683;-77
2022/06/02 09:48:46;;;;;;;5.78;5.57;;;28.20;52.20;;;;;;4992446;28;20196;-77
2022/06/02 09:51:44;;;;;;;7.97;7.55;;;28.60;52.30;;;;;;4991511;28;20404;-77
2022/06/02 09:54:50;;;;;;;6.28;6.03;;;28.60;48.90;;;;;;4990555;28;20208;-77
2022/06/02 10:00:18;;;;;;;9.02;8.52;;;27.70;49.80;;;;;;4992681;28;20226;-78
2022/06/02 10:03:05;;;;;;;7.45;6.90;;;27.40;51.60;;;;;;4993027;28;20205;-77
2022/06/02 10:06:03;;;;;;;7.80;7.38;;;27.90;49.60;;;;;;4991371;28;20761;-76
2022/06/02 10:09:06;;;;;;;5.07;4.88;;;27.70;49.40;;;;;;4991006;28;20206;-77
2022/06/02 10:15:27;;;;;;;8.38;7.97;;;27.90;49.70;;;;;;4932217;29;20300;-77
2022/06/02 10:18:30;;;;;;;10.25;9.73;;;28.10;49.90;;;;;;4931810;29;20189;-78
2022/06/02 10:21:11;;;;;;;5.68;5.47;;;28.30;50.00;;;;;;4991419;28;20684;-77
2022/06/02 10:24:15;;;;;;;4.20;3.90;;;28.60;48.50;;;;;;4991267;28;20218;-78
2022/06/02 10:27:19;;;;;;;4.53;4.22;;;29.00;48.00;;;;;;4990817;28;20544;-77
2022/06/02 10:30:08;;;;;;;4.57;4.20;;;29.00;48.00;;;;;;4992260;28;20710;-77
2022/06/02 10:32:49;;;;;;;5.72;5.53;;;29.30;47.10;;;;;;4992203;28;20181;-77
2022/06/02 10:35:31;;;;;;;4.43;4.22;;;29.50;46.90;;;;;;4990953;28;20207;-77
2022/06/02 10:38:14;;;;;;;3.85;3.65;;;29.00;48.60;;;;;;4991882;28;20181;-77
2022/06/02 10:40:46;;;;;;;9.38;8.80;;;29.50;50.60;;;;;;4990927;28;20618;-78
2022/06/02 10:43:36;;;;;;;24.15;23.00;;;30.20;48.30;;;;;;4991946;28;20212;-77
2022/06/02 10:46:21;;;;;;;6.13;5.90;;;30.00;46.00;;;;;;4992055;28;20195;-79
2022/06/02 10:49:11;;;;;;;5.07;4.88;;;28.90;48.20;;;;;;4991831;28;20533;-77
2022/06/02 10:52:14;;;;;;;15.63;14.80;;;29.30;49.30;;;;;;4991997;28;20671;-77
2022/06/02 10:54:49;;;;;;;23.38;22.25;;;30.00;48.40;;;;;;4990776;28;20238;-78
2022/06/02 10:57:36;;;;;;;32.85;31.35;;;30.10;48.60;;;;;;4991643;28;20186;-78
2022/06/02 11:00:21;;;;;;;38.47;36.53;;;30.80;47.90;;;;;;4991842;28;20208;-79
2022/06/02 11:03:08;;;;;;;47.03;44.75;;;30.70;47.20;;;;;;4991767;28;20191;-78
2022/06/02 11:05:37;;;;;;;31.08;29.50;;;30.00;48.40;;;;;;4994036;28;20195;-77
2022/06/02 11:08:33;;;;;;;36.00;34.20;;;30.60;45.20;;;;;;4995360;28;20296;-77
2022/06/02 11:11:13;;;;;;;20.85;19.92;;;29.60;45.30;;;;;;4994762;28;20188;-80
2022/06/02 11:14:29;;;;;;;22.52;21.40;;;29.10;47.20;;;;;;4995823;28;20268;-79
2022/06/02 11:17:13;;;;;;;31.17;29.65;;;29.70;47.80;;;;;;4951383;28;20282;-78
2022/06/02 11:19:57;;;;;;;43.17;41.13;;;30.60;45.00;;;;;;4994178;28;20189;-78
2022/06/02 11:22:51;;;;;;;31.65;30.05;;;29.90;44.90;;;;;;4995421;28;20176;-78
2022/06/02 11:25:46;;;;;;;37.88;36.08;;;30.00;47.30;;;;;;4994159;28;20223;-77
2022/06/02 11:28:34;;;;;;;43.05;40.95;;;30.70;44.30;;;;;;4994917;28;20651;-77
2022/06/02 11:31:41;;;;;;;27.83;26.50;;;31.10;44.90;;;;;;4994249;28;20188;-77
2022/06/02 11:34:37;;;;;;;33.10;31.50;;;31.70;44.10;;;;;;4951767;28;20216;-77
2022/06/02 11:37:03;;;;;;;30.52;29.08;;;31.90;43.00;;;;;;4994445;28;20188;-77
2022/06/02 11:39:37;;;;;;;18.10;17.20;;;32.00;43.50;;;;;;4994814;28;20223;-77
2022/06/02 11:42:14;;;;;;;20.67;19.67;;;32.80;41.40;;;;;;4995035;28;20211;-77
2022/06/02 11:45:16;;;;;;;22.20;21.15;;;32.60;41.80;;;;;;4995078;28;20211;-78
2022/06/02 11:47:54;;;;;;;16.77;16.00;;;32.50;41.60;;;;;;4995266;28;20183;-78
2022/06/02 11:51:10;;;;;;;18.58;17.60;;;32.80;42.00;;;;;;4996299;28;20184;-78
2022/06/02 11:53:57;;;;;;;14.52;13.70;;;32.70;40.70;;;;;;4961862;28;20193;-79
2022/06/02 11:56:48;;;;;;;10.20;9.65;;;33.90;40.30;;;;;;4994457;28;20188;-79
2022/06/02 11:59:13;;;;;;;24.13;22.95;;;34.10;38.30;;;;;;4995120;28;20200;-80
2022/06/02 12:02:10;;;;;;;10.88;10.18;;;32.60;39.40;;;;;;4993430;28;20585;-78
2022/06/02 12:04:45;;;;;;;15.45;14.60;;;32.00;41.90;;;;;;4994488;28;20231;-78
2022/06/02 12:07:32;;;;;;;12.02;11.45;;;32.20;40.50;;;;;;4994333;28;20587;-78
2022/06/02 12:09:57;;;;;;;12.30;11.70;;;32.00;41.70;;;;;;4993414;28;20184;-78
2022/06/02 12:12:53;;;;;;;12.70;12.00;;;31.70;40.70;;;;;;4993368;28;20255;-79
2022/06/02 12:15:39;;;;;;;20.40;19.48;;;31.20;42.30;;;;;;4994355;28;20223;-78
2022/06/02 12:18:26;;;;;;;19.13;18.23;;;32.00;42.40;;;;;;4992271;28;20188;-79
2022/06/02 12:21:10;;;;;;;18.15;17.27;;;32.80;40.90;;;;;;4994932;28;20203;-78
2022/06/02 12:23:53;;;;;;;10.88;10.25;;;33.50;40.30;;;;;;4994232;28;20647;-78
2022/06/02 12:26:47;;;;;;;16.55;15.80;;;32.80;39.60;;;;;;4994404;28;20216;-79
2022/06/02 12:29:35;;;;;;;13.45;12.65;;;32.20;42.30;;;;;;4994202;28;20180;-79
2022/06/02 12:32:04;;;;;;;10.07;9.52;;;32.30;40.20;;;;;;4992974;28;20276;-78
2022/06/02 12:34:47;;;;;;;12.05;11.45;;;31.80;41.10;;;;;;4993061;28;20203;-78
2022/06/02 12:37:32;;;;;;;15.00;14.10;;;31.10;43.30;;;;;;4994097;28;20188;-78
2022/06/02 12:40:03;;;;;;;22.00;20.90;;;31.70;42.70;;;;;;4992813;28;20267;-78
2022/06/02 12:42:54;;;;;;;18.33;17.10;;;32.20;42.40;;;;;;4992742;28;20239;-79
2022/06/02 12:45:44;;;;;;;11.32;10.82;;;32.90;42.40;;;;;;4993993;28;20242;-79
2022/06/02 12:48:37;;;;;;;18.58;17.60;;;32.90;42.00;;;;;;4994007;28;20227;-79
2022/06/02 12:51:27;;;;;;;31.20;29.63;;;32.70;41.10;;;;;;4993949;28;20193;-79
2022/06/02 12:54:12;;;;;;;21.83;20.83;;;32.70;42.10;;;;;;4993839;28;20598;-80
2022/06/02 12:57:13;;;;;;;23.15;21.90;;;32.80;42.10;;;;;;4992599;28;20203;-79
2022/06/02 12:59:49;;;;;;;22.73;21.65;;;33.00;41.70;;;;;;4993775;28;20437;-79
2022/06/02 13:02:18;;;;;;;15.10;14.38;;;32.70;41.10;;;;;;4993704;28;20176;-78
2022/06/02 13:05:13;;;;;;;15.60;14.90;;;32.60;40.40;;;;;;4993555;28;20288;-78
2022/06/02 13:07:51;;;;;;;13.02;12.30;;;31.50;41.50;;;;;;4991868;28;20243;-79
2022/06/02 13:10:39;;;;;;;24.17;22.75;;;31.70;42.80;;;;;;4993825;28;20534;-79
2022/06/02 13:13:23;;;;;;;14.90;14.20;;;31.20;43.60;;;;;;4993575;28;20191;-79
2022/06/02 13:16:26;;;;;;;13.05;12.40;;;31.40;42.80;;;;;;4992202;28;20216;-77
2022/06/02 13:19:11;;;;;;;11.02;10.32;;;31.70;41.70;;;;;;4991853;28;20227;-78
2022/06/02 13:22:02;;;;;;;17.45;16.33;;;31.90;41.50;;;;;;4993215;28;20208;-79
2022/06/02 13:24:56;;;;;;;13.80;13.10;;;32.30;40.60;;;;;;4992790;28;20211;-79
2022/06/02 13:28:00;;;;;;;10.18;9.40;;;32.70;40.60;;;;;;4993136;28;20188;-79
2022/06/02 13:30:41;;;;;;;11.40;10.82;;;33.30;40.70;;;;;;4993149;28;20279;-78
2022/06/02 13:33:20;;;;;;;12.07;11.48;;;33.80;39.60;;;;;;4991932;28;20204;-79
2022/06/02 13:36:24;;;;;;;12.25;11.70;;;33.70;39.60;;;;;;4993083;28;20232;-79
2022/06/02 13:39:08;;;;;;;13.20;12.52;;;33.00;39.60;;;;;;4992585;28;20188;-78
2022/06/02 13:41:54;;;;;;;17.80;16.90;;;32.20;40.80;;;;;;4992799;28;20211;-78
2022/06/02 13:44:45;;;;;;;15.48;14.43;;;32.10;41.50;;;;;;4991840;28;20200;-78
2022/06/02 13:47:16;;;;;;;16.35;15.45;;;31.80;41.20;;;;;;4992856;28;20563;-80
2022/06/02 13:50:04;;;;;;;27.83;26.50;;;30.80;42.10;;;;;;4992802;28;20653;-78
2022/06/02 13:52:38;;;;;;;28.25;26.85;;;30.30;43.10;;;;;;4991452;28;20231;-79
2022/06/02 13:58:16;;;;;;;24.45;23.17;;;30.50;43.20;;;;;;4992214;28;20194;-79
2022/06/02 14:00:53;;;;;;;37.95;36.22;;;30.20;44.30;;;;;;4992906;28;20207;-79
2022/06/02 14:03:22;;;;;;;35.75;33.92;;;30.50;45.30;;;;;;4992513;28;20791;-80
2022/06/02 14:06:05;;;;;;;40.22;38.22;;;30.60;43.90;;;;;;4991507;28;20197;-79
2022/06/02 14:08:53;;;;;;;17.33;16.55;;;31.00;44.10;;;;;;4992207;28;20328;-77
2022/06/02 14:11:22;;;;;;;16.60;15.68;;;31.30;42.40;;;;;;4991363;28;20676;-77
2022/06/02 14:14:22;;;;;;;34.92;33.30;;;31.10;42.10;;;;;;4990811;28;20664;-78
2022/06/02 14:16:57;;;;;;;31.73;30.17;;;30.80;44.10;;;;;;4990839;28;20223;-78
2022/06/02 14:19:41;;;;;;;23.58;22.38;;;30.50;44.20;;;;;;4992117;28;20275;-77
2022/06/02 14:22:37;;;;;;;14.63;13.90;;;31.60;43.70;;;;;;4990880;28;20191;-78
2022/06/02 14:25:28;;;;;;;8.38;8.05;;;33.10;40.90;;;;;;4991168;28;20204;-78
2022/06/02 14:28:28;;;;;;;12.10;11.50;;;34.00;39.20;;;;;;4991699;28;20203;-79
2022/06/02 14:31:32;;;;;;;9.32;8.90;;;34.10;40.20;;;;;;4950368;28;20220;-78
2022/06/02 14:34:23;;;;;;;7.95;7.65;;;34.80;39.20;;;;;;4961571;28;20235;-79
2022/06/02 14:37:22;;;;;;;8.40;8.00;;;35.00;38.60;;;;;;4990518;28;20239;-78
2022/06/02 14:40:06;;;;;;;6.45;6.05;;;35.00;39.20;;;;;;4980417;28;20188;-77
2022/06/02 14:43:03;;;;;;;5.60;5.20;;;35.30;38.30;;;;;;4992591;28;20199;-79
2022/06/02 14:45:38;;;;;;;16.20;15.43;;;34.60;39.20;;;;;;4991942;28;20196;-78
2022/06/02 14:48:13;;;;;;;15.18;14.40;;;33.30;41.10;;;;;;4991484;28;20179;-78
2022/06/02 14:51:08;;;;;;;11.40;10.73;;;32.20;42.10;;;;;;4991823;28;20183;-78
2022/06/02 14:53:41;;;;;;;20.10;18.77;;;31.30;43.70;;;;;;4992299;28;20199;-78
2022/06/02 14:56:43;;;;;;;11.52;10.93;;;30.50;45.20;;;;;;4991427;28;20188;-78
2022/06/02 14:59:39;;;;;;;12.88;12.05;;;30.50;45.30;;;;;;4924726;28;20210;-80
2022/06/02 15:02:31;;;;;;;37.60;35.53;;;30.30;44.10;;;;;;4927732;28;20312;-81
2022/06/02 15:05:15;;;;;;;72.40;68.43;;;29.80;46.50;;;;;;4993713;28;20717;-79
2022/06/02 15:08:13;;;;;;;81.53;77.60;;;29.30;48.40;;;;;;4992214;28;20177;-77
2022/06/02 15:11:01;;;;;;;79.68;75.85;;;29.10;47.90;;;;;;4991759;28;20219;-79
2022/06/02 15:13:58;;;;;;;46.17;43.97;;;28.50;48.30;;;;;;4991571;28;20657;-78
2022/06/02 15:16:42;;;;;;;12.52;11.90;;;28.20;47.70;;;;;;5030057;23;20224;-75
2022/06/02 15:19:52;;;;;;;7.28;6.97;;;27.70;48.80;;;;;;5011132;28;20180;-76
2022/06/02 15:22:48;;;;;;;7.18;6.78;;;27.20;49.80;;;;;;5000692;28;20199;-76
2022/06/02 15:25:34;;;;;;;6.93;6.53;;;27.10;50.00;;;;;;5011238;28;20203;-75
2022/06/02 15:28:12;;;;;;;6.00;5.70;;;27.10;50.60;;;;;;5010749;28;20214;-76
2022/06/02 15:30:43;;;;;;;7.30;6.90;;;26.90;50.40;;;;;;5011319;28;20183;-76
2022/06/02 15:33:44;;;;;;;7.22;6.93;;;26.90;51.00;;;;;;5008358;28;20209;-75
2022/06/02 15:36:19;;;;;;;5.95;5.65;;;27.00;50.60;;;;;;5007214;28;20214;-76
2022/06/02 15:39:06;;;;;;;5.65;5.35;;;27.30;49.40;;;;;;5010412;28;20557;-75
2022/06/02 15:41:35;;;;;;;5.22;5.03;;;27.50;48.60;;;;;;4990725;28;20575;-75
2022/06/02 15:44:42;;;;;;;5.30;5.10;;;27.50;49.00;;;;;;4990760;28;20181;-75
2022/06/02 15:47:36;;;;;;;6.32;5.93;;;27.30;48.90;;;;;;4989755;28;20593;-75
2022/06/02 15:50:24;;;;;;;6.20;5.85;;;27.30;49.00;;;;;;4990439;28;20599;-75
2022/06/02 15:53:04;;;;;;;4.97;4.68;;;27.40;49.10;;;;;;5007198;28;20183;-76
2022/06/02 15:55:48;;;;;;;5.07;4.88;;;27.20;49.60;;;;;;5020877;28;20203;-76
2022/06/02 15:58:29;;;;;;;7.38;6.97;;;26.80;50.00;;;;;;5026203;28;20206;-75
2022/06/02 16:01:26;;;;;;;10.52;8.50;;;26.60;50.40;;;;;;5016933;28;20235;-76
2022/06/02 16:04:33;;;;;;;9.27;8.75;;;26.50;50.50;;;;;;5013649;28;20180;-76
2022/06/02 16:07:06;;;;;;;8.85;8.20;;;26.30;51.80;;;;;;4934241;29;20182;-76
2022/06/02 16:12:57;;;;;;;5.38;5.07;;;26.10;52.60;;;;;;5012973;28;20282;-75
2022/06/02 16:15:41;;;;;;;5.60;5.32;;;26.00;53.90;;;;;;5010254;28;20207;-76
2022/06/02 16:18:28;;;;;;;3.95;3.75;;;25.80;52.60;;;;;;4992959;28;20187;-76
2022/06/02 16:21:32;;;;;;;3.40;3.30;;;25.50;53.90;;;;;;5013529;28;20572;-76
2022/06/02 16:24:15;;;;;;;5.35;5.05;;;25.40;53.40;;;;;;5013269;28;20190;-75
2022/06/02 16:27:00;;;;;;;5.63;5.40;;;25.20;54.30;;;;;;4999231;28;20204;-75
2022/06/02 16:29:29;;;;;;;5.00;4.63;;;25.10;55.10;;;;;;5005162;28;20191;-76
2022/06/02 16:32:28;;;;;;;4.72;4.38;;;25.10;55.40;;;;;;5012447;28;20233;-75
2022/06/02 16:35:16;;;;;;;8.68;7.47;;;25.10;55.70;;;;;;4954354;28;20291;-76
2022/06/02 16:38:15;;;;;;;4.60;4.18;;;25.10;56.30;;;;;;4993826;28;20676;-76
2022/06/02 16:40:57;;;;;;;3.97;3.78;;;25.30;56.40;;;;;;4993077;28;20274;-76
2022/06/02 16:43:34;;;;;;;5.88;5.30;;;25.30;56.40;;;;;;5002182;28;20168;-75
2022/06/02 16:46:31;;;;;;;8.40;7.70;;;25.30;56.70;;;;;;4993008;28;20207;-75
2022/06/02 16:49:06;;;;;;;4.93;4.68;;;25.30;57.00;;;;;;4993488;28;20662;-75
2022/06/02 16:51:44;;;;;;;5.63;5.32;;;25.20;56.40;;;;;;4993967;28;20186;-75
2022/06/02 16:54:30;;;;;;;6.03;5.72;;;25.00;56.60;;;;;;5006101;28;20246;-75
2022/06/02 16:57:09;;;;;;;8.38;7.88;;;24.90;56.60;;;;;;4953523;28;20192;-75
2022/06/02 16:59:59;;;;;;;10.90;10.35;;;24.90;56.90;;;;;;4993390;28;20283;-75
2022/06/02 17:02:57;;;;;;;11.55;10.88;;;24.90;56.90;;;;;;4992866;28;20591;-75
2022/06/02 17:05:34;;;;;;;15.57;14.80;;;24.90;56.90;;;;;;5012019;28;20203;-75
2022/06/02 17:08:40;;;;;;;20.75;19.40;;;24.90;57.20;;;;;;5012067;28;20659;-75
2022/06/02 17:11:18;;;;;;;23.10;21.98;;;24.90;57.30;;;;;;5011996;28;20270;-75
2022/06/02 17:13:53;;;;;;;21.90;20.83;;;24.90;57.70;;;;;;5011682;28;20191;-75
2022/06/02 17:16:48;;;;;;;25.70;24.42;;;24.90;57.20;;;;;;5011567;28;20221;-75
2022/06/02 17:19:23;;;;;;;25.08;23.83;;;24.80;57.70;;;;;;5000419;28;20180;-74
2022/06/02 17:22:17;;;;;;;23.27;21.67;;;24.70;57.60;;;;;;5011668;28;20214;-75
2022/06/02 17:25:26;;;;;;;20.73;19.75;;;24.60;57.70;;;;;;5012721;28;20758;-75
2022/06/02 17:28:15;;;;;;;22.27;20.90;;;24.70;57.90;;;;;;5011979;28;20190;-75
2022/06/02 17:31:08;;;;;;;23.10;21.83;;;24.90;57.90;;;;;;5012728;28;20580;-76
2022/06/02 17:33:47;;;;;;;16.50;15.68;;;25.00;57.40;;;;;;5013023;28;20207;-75
2022/06/02 17:36:31;;;;;;;15.85;15.05;;;25.10;56.90;;;;;;5023047;28;20188;-75
2022/06/02 17:39:34;;;;;;;22.05;20.55;;;24.90;57.60;;;;;;5020859;28;20183;-75